createdAt,value
2018-05-04T00:01:52.505Z,10.58
2018-05-04T00:04:20.002Z,10.53
2018-05-04T00:06:47.477Z,10.47
2018-05-04T00:09:15.040Z,10.46
2018-05-04T00:11:42.591Z,10.45
2018-05-04T00:14:10.032Z,10.43
2018-05-04T00:16:37.483Z,10.43
2018-05-04T00:19:04.959Z,10.45
2018-05-04T00:21:32.415Z,10.47
2018-05-04T00:23:59.873Z,10.49
2018-05-04T00:26:27.347Z,10.44
2018-05-04T00:28:54.798Z,10.40
2018-05-04T00:31:22.284Z,10.43
2018-05-04T00:33:49.753Z,10.39
2018-05-04T00:36:17.246Z,10.39
2018-05-04T00:38:44.741Z,10.36
2018-05-04T00:41:12.250Z,10.34
2018-05-04T00:43:39.721Z,10.31
2018-05-04T00:46:07.203Z,10.29
2018-05-04T00:48:34.654Z,10.27
2018-05-04T00:51:02.099Z,10.26
2018-05-04T00:53:29.550Z,10.26
2018-05-04T00:55:57.008Z,10.21
2018-05-04T00:58:24.582Z,10.17
2018-05-04T01:00:52.058Z,10.15
2018-05-04T01:03:19.506Z,10.15
2018-05-04T01:05:47.090Z,10.10
2018-05-04T01:08:14.621Z,10.01
2018-05-04T01:10:42.065Z,9.94
2018-05-04T01:13:09.506Z,9.91
2018-05-04T01:15:37.105Z,9.94
2018-05-04T01:18:04.641Z,9.91
2018-05-04T01:23:06.004Z,9.88
2018-05-04T01:25:33.491Z,9.85
2018-05-04T01:28:01.078Z,9.83
2018-05-04T01:30:28.581Z,9.81
2018-05-04T01:32:56.031Z,9.80
2018-05-04T01:35:23.507Z,9.79
2018-05-04T01:37:51.005Z,9.81
2018-05-04T01:40:18.462Z,9.80
2018-05-04T01:42:45.905Z,9.80
2018-05-04T01:45:13.456Z,9.77
2018-05-04T01:47:40.932Z,9.76
2018-05-04T01:50:08.444Z,9.71
2018-05-04T01:52:36.008Z,9.73
2018-05-04T01:55:03.486Z,9.73
2018-05-04T01:57:30.943Z,9.70
2018-05-04T01:59:58.468Z,9.67
2018-05-04T02:02:25.951Z,9.64
2018-05-04T02:04:53.435Z,9.62
2018-05-04T02:07:20.955Z,9.60
2018-05-04T02:09:48.436Z,9.57
2018-05-04T02:12:15.977Z,9.56
2018-05-04T02:14:43.451Z,9.52
2018-05-04T02:17:11.018Z,9.52
2018-05-04T02:19:38.468Z,9.51
2018-05-04T02:22:06.055Z,9.43
2018-05-04T02:24:33.535Z,9.36
2018-05-04T02:27:01.017Z,9.35
2018-05-04T02:29:28.545Z,9.38
2018-05-04T02:31:55.995Z,9.39
2018-05-04T02:34:23.496Z,9.39
2018-05-04T02:36:50.960Z,9.35
2018-05-04T02:39:18.423Z,9.34
2018-05-04T02:41:45.997Z,9.28
2018-05-04T02:44:13.523Z,9.24
2018-05-04T02:46:40.987Z,9.24
2018-05-04T02:49:08.537Z,9.24
2018-05-04T02:51:36.009Z,9.23
2018-05-04T02:54:03.561Z,9.25
2018-05-04T02:56:31.117Z,9.24
2018-05-04T02:58:58.633Z,9.22
2018-05-04T03:01:26.164Z,9.21
2018-05-04T03:03:53.649Z,9.20
2018-05-04T03:06:21.142Z,9.18
2018-05-04T03:08:48.620Z,9.16
2018-05-04T03:11:16.110Z,9.13
2018-05-04T03:13:43.656Z,9.14
2018-05-04T03:16:11.177Z,9.10
2018-05-04T03:18:38.654Z,9.09
2018-05-04T03:21:06.127Z,9.08
2018-05-04T03:23:33.677Z,9.08
2018-05-04T03:26:01.128Z,9.11
2018-05-04T03:28:28.607Z,9.10
2018-05-04T03:30:56.060Z,9.11
2018-05-04T03:33:23.528Z,9.14
2018-05-04T03:35:51.000Z,9.17
2018-05-04T03:38:18.481Z,9.21
2018-05-04T03:40:46.801Z,9.22
2018-05-04T03:43:14.338Z,9.21
2018-05-04T03:45:41.883Z,9.20
2018-05-04T03:48:09.363Z,9.17
2018-05-04T03:50:36.857Z,9.18
2018-05-04T03:53:04.397Z,9.19
2018-05-04T03:55:31.883Z,9.16
2018-05-04T03:58:11.299Z,9.14
2018-05-04T04:00:50.520Z,9.17
2018-05-04T04:03:29.799Z,9.17
2018-05-04T04:05:57.256Z,9.18
2018-05-04T04:08:24.728Z,9.25
2018-05-04T04:10:52.213Z,9.30
2018-05-04T04:13:19.665Z,9.39
2018-05-04T04:15:47.108Z,9.51
2018-05-04T04:18:14.580Z,9.66
2018-05-04T04:20:42.060Z,9.79
2018-05-04T04:23:09.564Z,9.88
2018-05-04T04:25:37.071Z,9.88
2018-05-04T04:28:04.532Z,9.93
2018-05-04T04:30:31.988Z,10.24
2018-05-04T04:32:59.480Z,10.37
2018-05-04T04:35:26.966Z,10.37
2018-05-04T04:37:54.505Z,10.45
2018-05-04T04:40:21.973Z,10.59
2018-05-04T04:42:49.466Z,11.16
2018-05-04T04:45:16.955Z,12.33
2018-05-04T04:47:44.432Z,13.60
2018-05-04T04:50:11.899Z,14.18
2018-05-04T04:52:39.376Z,14.47
2018-05-04T04:55:06.849Z,14.73
2018-05-04T04:57:34.447Z,13.58
2018-05-04T05:00:01.925Z,12.39
2018-05-04T05:02:29.404Z,11.57
2018-05-04T05:04:56.923Z,11.11
2018-05-04T05:07:24.383Z,11.01
2018-05-04T05:09:51.868Z,11.03
2018-05-04T05:12:19.395Z,10.88
2018-05-04T05:14:46.895Z,10.63
2018-05-04T05:17:14.341Z,10.54
2018-05-04T05:19:41.853Z,10.47
2018-05-04T05:22:09.352Z,10.43
2018-05-04T05:24:36.839Z,10.45
2018-05-04T05:27:04.325Z,10.60
2018-05-04T05:29:31.804Z,10.63
2018-05-04T05:31:59.276Z,10.76
2018-05-04T05:34:26.801Z,10.89
2018-05-04T05:36:54.271Z,11.00
2018-05-04T05:39:21.721Z,11.01
2018-05-04T05:41:49.238Z,11.06
2018-05-04T05:44:16.844Z,11.14
2018-05-04T05:46:44.402Z,11.26
2018-05-04T05:49:11.887Z,11.38
2018-05-04T05:51:39.332Z,11.47
2018-05-04T05:54:06.883Z,11.50
2018-05-04T05:56:34.366Z,11.58
2018-05-04T05:59:01.863Z,11.56
2018-05-04T06:01:29.507Z,11.50
2018-05-04T06:03:56.983Z,11.43
2018-05-04T06:06:24.448Z,11.54
2018-05-04T06:08:52.018Z,11.67
2018-05-04T06:11:19.527Z,11.82
2018-05-04T06:13:46.994Z,11.90
2018-05-04T06:16:14.490Z,12.09
2018-05-04T06:18:41.958Z,12.13
2018-05-04T06:21:09.465Z,12.20
2018-05-04T06:23:37.046Z,12.35
2018-05-04T06:26:04.540Z,12.52
2018-05-04T06:28:32.301Z,12.66
2018-05-04T06:30:59.821Z,12.76
2018-05-04T06:33:27.277Z,12.80
2018-05-04T06:35:54.821Z,12.85
2018-05-04T06:38:22.335Z,12.96
2018-05-04T06:40:49.802Z,13.00
2018-05-04T06:43:17.349Z,12.97
2018-05-04T06:45:44.898Z,13.02
2018-05-04T06:48:12.417Z,12.86
2018-05-04T06:50:39.932Z,13.03
2018-05-04T06:53:07.395Z,13.05
2018-05-04T06:55:34.847Z,13.15
2018-05-04T06:58:02.316Z,13.23
2018-05-04T07:00:29.792Z,13.20
2018-05-04T07:02:57.268Z,13.25
2018-05-04T07:05:24.736Z,13.27
2018-05-04T07:07:52.275Z,13.30
2018-05-04T07:10:19.811Z,13.43
2018-05-04T07:12:47.290Z,13.49
2018-05-04T07:15:14.797Z,13.61
2018-05-04T07:17:42.280Z,13.78
2018-05-04T07:20:09.765Z,13.87
2018-05-04T07:22:37.231Z,13.79
2018-05-04T07:25:04.722Z,13.43
2018-05-04T07:27:32.283Z,13.53
2018-05-04T07:29:59.748Z,13.66
2018-05-04T07:32:27.308Z,13.56
2018-05-04T07:34:54.812Z,13.66
2018-05-04T07:37:22.306Z,13.82
2018-05-04T07:39:49.797Z,13.86
2018-05-04T07:42:17.322Z,14.01
2018-05-04T07:44:44.825Z,14.15
2018-05-04T07:47:12.300Z,14.20
2018-05-04T07:49:39.781Z,14.10
2018-05-04T07:52:07.240Z,13.99
2018-05-04T07:54:34.683Z,13.97
2018-05-04T07:57:02.201Z,14.12
2018-05-04T07:59:29.661Z,14.33
2018-05-04T08:01:57.118Z,14.42
2018-05-04T08:04:24.641Z,14.33
2018-05-04T08:06:52.130Z,14.15
2018-05-04T08:09:19.649Z,13.82
2018-05-04T08:11:47.103Z,13.95
2018-05-04T08:14:14.556Z,14.23
2018-05-04T08:16:42.057Z,14.42
2018-05-04T08:19:09.607Z,14.41
2018-05-04T08:21:37.060Z,14.32
2018-05-04T08:24:04.602Z,14.38
2018-05-04T08:26:32.092Z,14.31
2018-05-04T08:28:59.545Z,14.59
2018-05-04T08:31:27.037Z,14.91
2018-05-04T08:33:54.515Z,14.87
2018-05-04T08:36:22.093Z,15.10
2018-05-04T08:38:49.614Z,15.29
2018-05-04T08:41:17.062Z,15.38
2018-05-04T08:43:44.604Z,15.35
2018-05-04T08:46:12.067Z,15.42
2018-05-04T08:48:39.556Z,15.28
2018-05-04T08:51:07.240Z,15.33
2018-05-04T08:53:34.704Z,15.25
2018-05-04T08:56:02.191Z,15.36
2018-05-04T08:58:29.703Z,15.31
2018-05-04T09:00:57.153Z,15.38
2018-05-04T09:03:24.632Z,15.59
2018-05-04T09:05:52.163Z,15.72
2018-05-04T09:08:19.638Z,15.79
2018-05-04T09:10:47.123Z,15.88
2018-05-04T09:13:14.601Z,15.82
2018-05-04T09:15:42.103Z,15.57
2018-05-04T09:18:09.600Z,15.42
2018-05-04T09:20:37.060Z,15.54
2018-05-04T09:23:04.565Z,15.67
2018-05-04T09:25:32.019Z,15.86
2018-05-04T09:27:59.528Z,16.13
2018-05-04T09:30:26.985Z,16.07
2018-05-04T09:32:54.489Z,15.94
2018-05-04T09:35:21.980Z,15.62
2018-05-04T09:37:49.459Z,15.65
2018-05-04T09:40:16.937Z,15.78
2018-05-04T09:42:44.576Z,15.88
2018-05-04T09:45:12.068Z,16.02
2018-05-04T09:47:39.551Z,16.35
2018-05-04T09:50:06.995Z,16.51
2018-05-04T09:52:34.504Z,16.15
2018-05-04T09:55:02.064Z,16.03
2018-05-04T09:57:29.598Z,16.13
2018-05-04T09:59:57.167Z,16.35
2018-05-04T10:02:25.215Z,16.24
2018-05-04T10:04:52.739Z,16.20
2018-05-04T10:07:20.357Z,16.40
2018-05-04T10:09:47.837Z,16.37
2018-05-04T10:12:15.286Z,16.46
2018-05-04T10:14:42.829Z,16.34
2018-05-04T10:17:10.280Z,16.15
2018-05-04T10:19:37.765Z,16.06
2018-05-04T10:22:05.273Z,16.27
2018-05-04T10:24:32.796Z,16.24
2018-05-04T10:27:00.261Z,16.40
2018-05-04T10:29:27.761Z,16.57
2018-05-04T10:31:55.231Z,16.65
2018-05-04T10:34:22.723Z,16.82
2018-05-04T10:36:50.203Z,17.04
2018-05-04T10:39:17.684Z,17.01
2018-05-04T10:41:45.165Z,16.94
2018-05-04T10:44:12.689Z,16.83
2018-05-04T10:46:40.180Z,17.09
2018-05-04T10:49:07.670Z,17.09
2018-05-04T10:51:35.148Z,17.14
2018-05-04T10:54:02.679Z,16.91
2018-05-04T10:56:31.179Z,17.05
2018-05-04T10:58:58.685Z,17.39
2018-05-04T11:01:26.200Z,17.47
2018-05-04T11:03:53.694Z,17.60
2018-05-04T11:06:21.156Z,17.21
2018-05-04T11:08:48.721Z,17.06
2018-05-04T11:11:16.257Z,16.97
2018-05-04T11:13:43.632Z,17.13
2018-05-04T11:16:11.106Z,17.19
2018-05-04T11:18:38.569Z,17.16
2018-05-04T11:21:06.114Z,17.29
2018-05-04T11:23:33.641Z,17.22
2018-05-04T11:26:01.147Z,17.26
2018-05-04T11:28:28.598Z,17.41
2018-05-04T11:30:56.182Z,17.42
2018-05-04T11:33:23.697Z,17.40
2018-05-04T11:35:51.236Z,17.36
2018-05-04T11:38:18.711Z,17.46
2018-05-04T11:40:46.190Z,17.54
2018-05-04T11:43:13.648Z,17.70
2018-05-04T11:45:41.128Z,17.44
2018-05-04T11:48:08.670Z,17.37
2018-05-04T11:50:36.127Z,17.59
2018-05-04T11:53:03.728Z,17.71
2018-05-04T11:55:31.280Z,17.87
2018-05-04T11:57:58.857Z,18.07
2018-05-04T12:00:26.361Z,18.14
2018-05-04T12:02:53.841Z,18.15
2018-05-04T12:05:21.303Z,17.84
2018-05-04T12:07:48.838Z,17.87
2018-05-04T12:10:16.389Z,18.10
2018-05-04T12:12:43.901Z,18.08
2018-05-04T12:15:11.394Z,18.06
2018-05-04T12:17:38.949Z,17.96
2018-05-04T12:20:06.442Z,18.02
2018-05-04T12:22:33.912Z,18.06
2018-05-04T12:25:01.395Z,17.96
2018-05-04T12:27:28.848Z,17.94
2018-05-04T12:29:56.315Z,17.90
2018-05-04T12:32:23.801Z,18.17
2018-05-04T12:34:51.291Z,18.41
2018-05-04T12:37:18.778Z,18.27
2018-05-04T12:39:46.287Z,18.34
2018-05-04T12:42:13.794Z,18.34
2018-05-04T12:44:41.299Z,18.43
2018-05-04T12:47:08.787Z,18.52
2018-05-04T12:49:36.398Z,18.52
2018-05-04T12:52:03.876Z,18.26
2018-05-04T12:54:31.318Z,18.26
2018-05-04T12:56:58.804Z,18.32
2018-05-04T12:59:26.355Z,18.34
2018-05-04T13:01:53.834Z,18.24
2018-05-04T13:04:21.447Z,18.20
2018-05-04T13:06:49.005Z,18.33
2018-05-04T13:09:16.500Z,18.32
2018-05-04T13:11:44.035Z,18.47
2018-05-04T13:14:11.574Z,18.55
2018-05-04T13:16:39.144Z,18.91
2018-05-04T13:19:06.599Z,18.91
2018-05-04T13:21:34.168Z,18.69
2018-05-04T13:24:01.677Z,18.69
2018-05-04T13:26:29.144Z,18.77
2018-05-04T13:28:56.975Z,18.73
2018-05-04T13:31:24.503Z,18.76
2018-05-04T13:33:51.984Z,18.91
2018-05-04T13:36:19.735Z,19.24
2018-05-04T13:38:47.283Z,19.30
2018-05-04T13:41:14.801Z,19.12
2018-05-04T13:43:42.286Z,19.12
2018-05-04T13:46:09.732Z,19.20
2018-05-04T13:48:37.549Z,19.26
2018-05-04T13:51:05.178Z,19.37
2018-05-04T13:53:32.627Z,19.43
2018-05-04T13:56:00.072Z,19.20
2018-05-04T13:58:27.548Z,19.30
2018-05-04T14:00:55.020Z,19.32
2018-05-04T14:03:22.504Z,19.33
2018-05-04T14:05:50.013Z,19.35
2018-05-04T14:08:17.463Z,19.28
2018-05-04T14:10:44.941Z,19.31
2018-05-04T14:13:12.468Z,19.44
2018-05-04T14:15:39.958Z,19.57
2018-05-04T14:18:07.441Z,19.70
2018-05-04T14:20:34.919Z,19.84
2018-05-04T14:23:02.403Z,19.96
2018-05-04T14:25:29.901Z,19.62
2018-05-04T14:27:57.417Z,19.45
2018-05-04T14:30:24.925Z,19.43
2018-05-04T14:32:52.408Z,19.59
2018-05-04T14:35:19.914Z,19.96
2018-05-04T14:37:47.401Z,20.08
2018-05-04T14:40:14.861Z,19.92
2018-05-04T14:42:42.404Z,19.73
2018-05-04T14:45:09.800Z,19.57
2018-05-04T14:47:37.295Z,19.33
2018-05-04T14:50:04.837Z,19.42
2018-05-04T14:52:32.343Z,19.75
2018-05-04T14:54:59.838Z,19.82
2018-05-04T14:57:27.347Z,19.82
2018-05-04T14:59:54.842Z,19.83
2018-05-04T15:02:22.303Z,19.64
2018-05-04T15:04:49.884Z,19.52
2018-05-04T15:07:17.361Z,19.42
2018-05-04T15:09:44.833Z,19.42
2018-05-04T15:12:12.296Z,20.21
2018-05-04T15:14:39.824Z,21.72
2018-05-04T15:17:07.273Z,22.20
2018-05-04T15:19:34.721Z,23.12
2018-05-04T15:22:02.252Z,24.33
2018-05-04T15:24:29.754Z,25.72
2018-05-04T15:26:57.357Z,25.83
2018-05-04T15:29:24.919Z,26.12
2018-05-04T15:31:52.383Z,26.60
2018-05-04T15:34:19.864Z,26.97
2018-05-04T15:36:47.358Z,26.63
2018-05-04T15:39:14.858Z,25.48
2018-05-04T15:41:42.373Z,25.36
2018-05-04T15:44:09.863Z,24.82
2018-05-04T15:46:37.349Z,25.20
2018-05-04T15:49:10.511Z,26.25
2018-05-04T15:51:43.669Z,26.49
2018-05-04T15:54:11.193Z,26.66
2018-05-04T15:56:38.692Z,26.71
2018-05-04T15:59:06.148Z,26.64
2018-05-04T16:01:33.637Z,25.45
2018-05-04T16:04:01.113Z,25.01
2018-05-04T16:06:28.575Z,25.11
2018-05-04T16:08:56.055Z,23.89
2018-05-04T16:11:23.580Z,23.53
2018-05-04T16:13:51.107Z,23.30
2018-05-04T16:16:18.658Z,23.37
2018-05-04T16:18:46.249Z,22.75
2018-05-04T16:21:13.708Z,22.13
2018-05-04T16:23:41.190Z,20.76
2018-05-04T16:26:08.798Z,19.99
2018-05-04T16:28:36.384Z,19.47
2018-05-04T16:31:03.836Z,19.07
2018-05-04T16:33:31.325Z,18.90
2018-05-04T16:35:58.780Z,18.93
2018-05-04T16:38:26.285Z,18.76
2018-05-04T16:40:53.764Z,18.68
2018-05-04T16:43:21.313Z,18.52
2018-05-04T16:45:48.834Z,18.53
2018-05-04T16:48:21.980Z,18.55
2018-05-04T16:50:49.458Z,18.39
2018-05-04T16:53:16.947Z,18.07
2018-05-04T16:55:44.399Z,17.90
2018-05-04T16:58:11.892Z,17.77
2018-05-04T17:00:39.361Z,17.62
2018-05-04T17:03:06.917Z,17.53
2018-05-04T17:05:34.401Z,17.49
2018-05-04T17:08:01.928Z,17.47
2018-05-04T17:10:29.331Z,17.38
2018-05-04T17:12:56.817Z,17.37
2018-05-04T17:15:24.306Z,17.34
2018-05-04T17:17:51.806Z,17.21
2018-05-04T17:20:19.267Z,17.17
2018-05-04T17:22:46.779Z,17.10
2018-05-04T17:25:15.236Z,17.10
2018-05-04T17:27:42.727Z,16.99
2018-05-04T17:30:10.204Z,16.97
2018-05-04T17:32:37.649Z,16.93
2018-05-04T17:35:05.128Z,16.85
2018-05-04T17:37:32.634Z,16.78
2018-05-04T17:40:00.122Z,16.76
2018-05-04T17:42:27.621Z,16.75
2018-05-04T17:44:55.151Z,16.72
2018-05-04T17:47:22.682Z,16.75
2018-05-04T17:49:50.149Z,16.68
2018-05-04T17:52:17.635Z,16.64
2018-05-04T17:54:45.093Z,16.60
2018-05-04T17:57:12.540Z,16.52
2018-05-04T17:59:40.066Z,16.47
2018-05-04T18:02:07.520Z,16.40
2018-05-04T18:04:35.005Z,16.32
2018-05-04T18:07:02.547Z,16.28
2018-05-04T18:09:30.001Z,16.24
2018-05-04T18:11:57.585Z,16.21
2018-05-04T18:14:25.055Z,16.18
2018-05-04T18:16:52.506Z,16.15
2018-05-04T18:19:19.985Z,16.10
2018-05-04T18:21:47.472Z,16.06
2018-05-04T18:24:15.049Z,16.00
2018-05-04T18:26:42.512Z,15.96
2018-05-04T18:29:09.988Z,15.90
2018-05-04T18:31:37.519Z,15.88
2018-05-04T18:34:04.992Z,15.84
2018-05-04T18:36:32.464Z,15.79
2018-05-04T18:38:59.939Z,15.75
2018-05-04T18:41:27.450Z,15.70
2018-05-04T18:43:54.948Z,15.63
2018-05-04T18:46:22.433Z,15.55
2018-05-04T18:48:49.912Z,15.51
2018-05-04T18:51:17.483Z,15.44
2018-05-04T18:53:44.928Z,15.36
2018-05-04T18:56:12.459Z,15.29
2018-05-04T18:58:39.914Z,15.25
2018-05-04T19:01:07.476Z,15.22
2018-05-04T19:03:34.947Z,15.21
2018-05-04T19:06:02.432Z,15.13
2018-05-04T19:08:29.884Z,15.08
2018-05-04T19:10:57.359Z,15.07
2018-05-04T19:13:24.822Z,15.05
2018-05-04T19:15:52.308Z,15.04
2018-05-04T19:18:19.853Z,14.98
2018-05-04T19:20:47.309Z,14.87
2018-05-04T19:23:14.809Z,14.81
2018-05-04T19:25:42.304Z,14.70
2018-05-04T19:28:09.849Z,14.56
2018-05-04T19:30:37.365Z,14.51
2018-05-04T19:33:04.889Z,14.42
2018-05-04T19:35:32.385Z,14.36
2018-05-04T19:37:59.835Z,14.32
2018-05-04T19:40:27.363Z,14.26
2018-05-04T19:42:54.897Z,14.23
2018-05-04T19:45:22.355Z,14.14
2018-05-04T19:47:49.913Z,14.08
2018-05-04T19:50:17.409Z,13.98
2018-05-04T19:52:44.975Z,13.90
2018-05-04T19:55:12.531Z,13.84
2018-05-04T19:57:40.002Z,13.78
2018-05-04T20:00:07.489Z,13.72
2018-05-04T20:02:35.012Z,13.66
2018-05-04T20:05:02.496Z,13.58
2018-05-04T20:07:30.869Z,13.51
2018-05-04T20:09:58.506Z,13.44
2018-05-04T20:12:26.024Z,13.42
2018-05-04T20:14:53.513Z,13.36
2018-05-04T20:17:23.686Z,13.31
2018-05-04T20:19:52.713Z,13.24
2018-05-04T20:22:21.764Z,13.20
2018-05-04T20:24:50.965Z,13.09
2018-05-04T20:27:21.143Z,13.03
2018-05-04T20:29:50.524Z,12.99
2018-05-04T20:32:20.244Z,12.96
2018-05-04T20:34:49.310Z,12.89
2018-05-04T20:37:19.284Z,12.86
2018-05-04T20:39:49.253Z,12.83
2018-05-04T20:42:19.716Z,12.77
2018-05-04T20:44:50.194Z,12.74
2018-05-04T20:47:19.631Z,12.72
2018-05-04T20:49:50.316Z,12.66
2018-05-04T20:52:19.395Z,12.58
2018-05-04T20:54:49.112Z,12.49
2018-05-04T20:57:17.913Z,12.46
2018-05-04T20:59:46.813Z,12.46
2018-05-04T21:02:15.944Z,12.42
2018-05-04T21:04:45.314Z,12.33
2018-05-04T21:07:14.499Z,12.30
2018-05-04T21:09:44.137Z,12.25
2018-05-04T21:12:13.258Z,12.20
2018-05-04T21:14:42.398Z,12.19
2018-05-04T21:17:11.791Z,12.17
2018-05-04T21:19:40.895Z,12.10
2018-05-04T21:22:10.140Z,12.05
2018-05-04T21:24:39.745Z,12.03
2018-05-04T21:27:08.924Z,11.98
2018-05-04T21:29:38.258Z,12.00
2018-05-04T21:32:07.539Z,11.95
2018-05-04T21:34:36.289Z,11.92
2018-05-04T21:37:05.380Z,11.85
2018-05-04T21:39:34.811Z,11.80
2018-05-04T21:42:04.034Z,11.75
2018-05-04T21:44:33.006Z,11.73
2018-05-04T21:47:01.533Z,11.73
2018-05-04T21:49:30.923Z,11.70
2018-05-04T21:52:00.565Z,11.67
2018-05-04T21:54:29.052Z,11.59
2018-05-04T21:56:57.548Z,11.54
2018-05-04T21:59:25.109Z,11.50
2018-05-04T22:01:54.161Z,11.41
2018-05-04T22:04:22.811Z,11.38
2018-05-04T22:06:51.882Z,11.37
2018-05-04T22:09:20.634Z,11.37
2018-05-04T22:11:48.272Z,11.28
2018-05-04T22:14:17.625Z,11.20
2018-05-04T22:16:47.112Z,11.14
2018-05-04T22:19:16.388Z,11.09
2018-05-04T22:21:45.833Z,11.06
2018-05-04T22:24:15.019Z,11.04
2018-05-04T22:26:43.953Z,11.01
2018-05-04T22:29:13.188Z,10.99
2018-05-04T22:31:42.064Z,10.98
2018-05-04T22:34:11.041Z,10.92
2018-05-04T22:36:40.106Z,10.88
2018-05-04T22:39:09.026Z,10.88
2018-05-04T22:41:37.785Z,10.83
2018-05-04T22:44:07.031Z,10.82
2018-05-04T22:46:36.204Z,10.78
2018-05-04T22:49:05.317Z,10.76
2018-05-04T22:51:34.691Z,10.72
2018-05-04T22:54:03.557Z,10.71
2018-05-04T22:56:32.895Z,10.67
2018-05-04T22:59:02.230Z,10.64
2018-05-04T23:01:31.052Z,10.59
2018-05-04T23:04:00.195Z,10.57
2018-05-04T23:06:29.511Z,10.55
2018-05-04T23:08:58.525Z,10.51
2018-05-04T23:11:27.575Z,10.48
2018-05-04T23:13:56.820Z,10.48
2018-05-04T23:16:25.770Z,10.44
2018-05-04T23:18:55.480Z,10.45
2018-05-04T23:21:24.535Z,10.44
2018-05-04T23:23:53.057Z,10.41
2018-05-04T23:26:22.185Z,10.32
2018-05-04T23:28:51.225Z,10.23
2018-05-04T23:31:20.228Z,10.17
2018-05-04T23:33:49.595Z,10.13
2018-05-04T23:36:18.636Z,10.13
2018-05-04T23:38:47.713Z,10.16
2018-05-04T23:41:17.176Z,10.16
2018-05-04T23:43:46.399Z,10.13
2018-05-04T23:46:15.673Z,10.12
2018-05-04T23:48:44.586Z,10.10
2018-05-04T23:51:13.594Z,10.10
2018-05-04T23:53:42.740Z,10.10
2018-05-04T23:56:11.639Z,10.08
2018-05-04T23:58:41.090Z,10.05
